Time;durP1;ratioP1;P1;durP2;ratioP2;P2;SDS_P1;SDS_P2;PMS_P1;PMS_P2;Temp;Humidity;BMP_temperature;BMP_pressure;BME280_temperature;BME280_humidity;BME280_pressure;Samples;Min_cycle;Max_cycle;Signal;HPM_P1;HPM_P2
2022/05/02 00:00:21;;;;;;;10.30;6.77;;;9.00;99.90;;;;;;5016226;28;20523;-73
2022/05/02 00:02:48;;;;;;;9.97;5.67;;;8.90;99.90;;;;;;5008472;28;20456;-72
2022/05/02 00:05:15;;;;;;;6.47;4.67;;;8.80;99.90;;;;;;5008469;28;20439;-74
2022/05/02 00:07:42;;;;;;;8.63;5.93;;;8.80;99.90;;;;;;5011286;28;20902;-73
2022/05/02 00:10:11;;;;;;;19.60;6.33;;;8.80;99.90;;;;;;5015420;28;20451;-71
2022/05/02 00:12:38;;;;;;;13.53;7.20;;;9.10;99.90;;;;;;5011615;28;20440;-71
2022/05/02 00:15:07;;;;;;;10.67;6.00;;;9.30;99.90;;;;;;5011481;28;20955;-73
2022/05/02 00:20:18;;;;;;;8.30;5.10;;;9.40;99.90;;;;;;5007874;28;20996;-72
2022/05/02 00:22:45;;;;;;;13.33;7.03;;;9.30;99.90;;;;;;4998384;28;20503;-72
2022/05/02 00:25:14;;;;;;;8.57;6.33;;;9.30;99.90;;;;;;5009134;28;20436;-73
2022/05/02 00:27:42;;;;;;;7.50;5.60;;;9.10;99.90;;;;;;5004805;28;20467;-71
2022/05/02 00:30:10;;;;;;;12.00;6.03;;;9.10;99.90;;;;;;5006621;28;20463;-72
2022/05/02 00:32:38;;;;;;;10.53;6.07;;;9.20;99.90;;;;;;5005323;28;20461;-72
2022/05/02 00:35:06;;;;;;;6.87;4.90;;;9.20;99.90;;;;;;5015851;28;20435;-71
2022/05/02 00:37:33;;;;;;;11.80;5.43;;;9.10;99.90;;;;;;5008900;28;20455;-70
2022/05/02 00:40:00;;;;;;;9.20;5.33;;;8.90;99.90;;;;;;5010283;28;20500;-74
2022/05/02 00:42:28;;;;;;;10.03;5.47;;;9.00;99.90;;;;;;5012985;28;20850;-70
2022/05/02 00:44:54;;;;;;;9.17;6.33;;;9.00;99.90;;;;;;5013205;28;20440;-71
2022/05/02 00:47:21;;;;;;;10.00;6.37;;;9.00;99.90;;;;;;5005212;28;20467;-70
2022/05/02 00:49:49;;;;;;;7.50;5.33;;;8.90;99.90;;;;;;5021343;28;20489;-70
2022/05/02 00:52:16;;;;;;;6.90;5.73;;;8.80;99.90;;;;;;5018496;28;20790;-70
2022/05/02 00:54:43;;;;;;;10.17;5.20;;;8.70;99.90;;;;;;5008482;28;20430;-70
2022/05/02 00:57:13;;;;;;;6.90;4.27;;;8.70;99.90;;;;;;5015264;28;20867;-70
2022/05/02 00:59:41;;;;;;;10.47;5.93;;;8.60;99.90;;;;;;5011660;28;21089;-73
2022/05/02 01:02:11;;;;;;;9.90;6.77;;;8.70;99.90;;;;;;5004118;28;20508;-71
2022/05/02 01:04:38;;;;;;;7.03;5.97;;;8.70;99.90;;;;;;5009795;28;20427;-70
2022/05/02 01:07:11;;;;;;;9.40;6.00;;;8.70;99.90;;;;;;5011271;28;20828;-71
2022/05/02 01:09:41;;;;;;;11.53;6.37;;;8.60;99.90;;;;;;5007751;28;20572;-71
2022/05/02 01:12:11;;;;;;;11.90;5.83;;;8.60;99.90;;;;;;5006979;28;20757;-71
2022/05/02 01:14:39;;;;;;;8.20;6.23;;;8.60;99.90;;;;;;5008412;28;20909;-72
2022/05/02 01:17:07;;;;;;;8.90;6.63;;;8.50;99.90;;;;;;5013301;28;20463;-71
2022/05/02 01:19:35;;;;;;;10.00;7.07;;;8.50;99.90;;;;;;5011328;28;21930;-70
2022/05/02 01:22:03;;;;;;;7.77;5.70;;;8.50;99.90;;;;;;5004642;28;20446;-72
2022/05/02 01:24:38;;;;;;;7.47;5.03;;;8.50;99.90;;;;;;5010549;28;20461;-71
2022/05/02 01:27:06;;;;;;;6.63;5.17;;;8.60;99.90;;;;;;5014110;28;20993;-71
2022/05/02 01:29:33;;;;;;;11.07;6.40;;;8.60;99.90;;;;;;5007511;28;20465;-73
2022/05/02 01:32:01;;;;;;;9.57;5.87;;;8.60;99.90;;;;;;5009961;28;20439;-71
2022/05/02 01:34:28;;;;;;;9.90;6.70;;;8.50;99.90;;;;;;5010959;28;20443;-71
2022/05/02 01:36:55;;;;;;;9.50;6.97;;;8.50;99.90;;;;;;5014009;28;21077;-71
2022/05/02 01:39:23;;;;;;;9.07;5.80;;;8.60;99.90;;;;;;5007686;28;20455;-72
2022/05/02 01:41:49;;;;;;;8.83;6.03;;;8.60;99.90;;;;;;5008871;28;20431;-71
2022/05/02 01:44:19;;;;;;;8.33;5.57;;;8.60;99.90;;;;;;5014933;28;20584;-72
2022/05/02 01:46:46;;;;;;;7.53;5.43;;;8.50;99.90;;;;;;5010345;28;20620;-73
2022/05/02 01:49:12;;;;;;;6.10;5.47;;;8.20;99.90;;;;;;5010692;28;21005;-71
2022/05/02 01:51:39;;;;;;;9.60;5.70;;;8.10;99.90;;;;;;5005913;28;20457;-71
2022/05/02 01:54:06;;;;;;;8.57;6.20;;;8.20;99.90;;;;;;5015600;28;20435;-71
2022/05/02 01:56:35;;;;;;;8.47;7.50;;;8.10;99.90;;;;;;5016511;28;20822;-74
2022/05/02 01:59:01;;;;;;;8.57;6.90;;;8.30;99.90;;;;;;5010241;28;20588;-71
2022/05/02 02:01:28;;;;;;;10.20;6.47;;;8.20;99.90;;;;;;5011793;28;20861;-75
2022/05/02 02:03:55;;;;;;;8.23;5.90;;;8.20;99.90;;;;;;5014969;28;20489;-72
2022/05/02 02:06:21;;;;;;;7.00;6.30;;;8.20;99.90;;;;;;5004264;28;20575;-74
2022/05/02 02:08:49;;;;;;;12.93;7.13;;;8.10;99.90;;;;;;5012901;28;20487;-71
2022/05/02 02:11:15;;;;;;;14.00;6.97;;;8.10;99.90;;;;;;5011126;28;20440;-71
2022/05/02 02:13:43;;;;;;;8.93;5.67;;;8.10;99.90;;;;;;5014243;28;20453;-72
2022/05/02 02:16:10;;;;;;;9.87;6.47;;;8.10;99.90;;;;;;5012764;28;20459;-71
2022/05/02 02:18:38;;;;;;;11.33;7.40;;;8.20;99.90;;;;;;5011162;28;20556;-70
2022/05/02 02:21:05;;;;;;;9.87;5.90;;;8.20;99.90;;;;;;5012229;28;20432;-73
2022/05/02 02:23:33;;;;;;;9.93;5.87;;;8.40;99.90;;;;;;5015787;28;20479;-72
2022/05/02 02:26:00;;;;;;;8.13;5.10;;;8.50;99.90;;;;;;5013825;28;20569;-72
2022/05/02 02:28:27;;;;;;;12.47;7.57;;;8.30;99.90;;;;;;5015035;28;20992;-72
2022/05/02 02:30:55;;;;;;;9.10;5.57;;;8.40;99.90;;;;;;5010971;28;20538;-71
2022/05/02 02:33:22;;;;;;;10.83;6.87;;;8.40;99.90;;;;;;5014639;28;20931;-71
2022/05/02 02:35:48;;;;;;;11.70;5.87;;;8.20;99.90;;;;;;5014394;28;20484;-70
2022/05/02 02:38:15;;;;;;;10.90;6.60;;;8.10;99.90;;;;;;5016189;28;20468;-71
2022/05/02 02:40:42;;;;;;;6.37;5.37;;;8.30;99.90;;;;;;5019265;28;20448;-70
2022/05/02 02:43:09;;;;;;;8.07;5.97;;;8.40;99.90;;;;;;5012665;28;20545;-73
2022/05/02 02:45:36;;;;;;;15.30;8.07;;;8.50;99.90;;;;;;5012602;28;20462;-71
2022/05/02 02:48:04;;;;;;;7.63;6.30;;;8.50;99.90;;;;;;5010777;28;20439;-71
2022/05/02 02:50:31;;;;;;;10.87;6.80;;;8.50;99.90;;;;;;5019333;28;20483;-74
2022/05/02 02:52:58;;;;;;;9.20;6.47;;;8.60;99.90;;;;;;5019444;28;20973;-72
2022/05/02 02:55:25;;;;;;;8.43;5.90;;;8.80;99.90;;;;;;5012894;28;20912;-71
2022/05/02 02:57:51;;;;;;;11.00;7.57;;;8.80;99.90;;;;;;5008370;28;20440;-74
2022/05/02 03:00:19;;;;;;;11.13;7.40;;;8.90;99.90;;;;;;5005968;28;20496;-72
2022/05/02 03:02:46;;;;;;;11.00;6.13;;;8.90;99.90;;;;;;5008491;28;20456;-72
2022/05/02 03:07:58;;;;;;;15.03;6.43;;;9.00;99.90;;;;;;5014100;28;21137;-72
2022/05/02 03:10:26;;;;;;;10.73;6.80;;;9.00;99.90;;;;;;5013479;28;20466;-73
2022/05/02 03:12:53;;;;;;;9.30;5.30;;;9.00;99.90;;;;;;5019873;28;20815;-74
2022/05/02 03:15:19;;;;;;;8.63;5.97;;;9.00;99.90;;;;;;5009525;28;20561;-71
2022/05/02 03:17:46;;;;;;;11.27;6.90;;;8.90;99.90;;;;;;5007257;28;20941;-71
2022/05/02 03:20:14;;;;;;;8.67;6.27;;;8.90;99.90;;;;;;5009429;28;20444;-73
2022/05/02 03:22:41;;;;;;;17.23;6.97;;;8.80;99.90;;;;;;5020097;28;20493;-72
2022/05/02 03:25:09;;;;;;;9.13;6.27;;;8.80;99.90;;;;;;5010476;28;20436;-74
2022/05/02 03:27:35;;;;;;;12.13;5.40;;;8.80;99.90;;;;;;5009889;28;20455;-72
2022/05/02 03:30:02;;;;;;;7.77;5.60;;;8.70;99.90;;;;;;5015383;28;20470;-72
2022/05/02 03:32:29;;;;;;;10.07;5.83;;;8.50;99.90;;;;;;5013877;28;20475;-73
2022/05/02 03:34:55;;;;;;;12.93;7.07;;;8.40;99.90;;;;;;5011845;28;20502;-69
2022/05/02 03:37:23;;;;;;;10.70;6.60;;;8.30;99.90;;;;;;5014522;28;20526;-71
2022/05/02 03:42:20;;;;;;;14.23;9.30;;;8.40;99.90;;;;;;4993479;28;20439;-73
2022/05/02 03:44:47;;;;;;;14.07;6.07;;;8.30;99.90;;;;;;5015826;28;20511;-74
2022/05/02 03:47:14;;;;;;;13.20;7.57;;;8.30;99.90;;;;;;5014996;28;20828;-74
2022/05/02 03:49:40;;;;;;;11.23;6.20;;;8.20;99.90;;;;;;5020641;28;20472;-77
2022/05/02 03:52:07;;;;;;;9.47;6.60;;;8.20;99.90;;;;;;4997831;28;20439;-74
2022/05/02 03:54:36;;;;;;;10.90;6.70;;;8.10;99.90;;;;;;4999785;28;20469;-75
2022/05/02 03:57:02;;;;;;;12.63;7.80;;;8.00;99.90;;;;;;5000199;28;20532;-74
2022/05/02 03:59:29;;;;;;;8.00;6.90;;;7.80;99.90;;;;;;4993127;28;20432;-74
2022/05/02 04:01:56;;;;;;;22.03;10.40;;;7.80;99.90;;;;;;4991589;28;20485;-74
2022/05/02 04:04:22;;;;;;;13.33;8.30;;;7.80;99.90;;;;;;4990034;28;20476;-75
2022/05/02 04:06:49;;;;;;;25.87;8.33;;;7.80;99.90;;;;;;4997505;28;20444;-73
2022/05/02 04:09:16;;;;;;;31.73;10.00;;;7.80;99.90;;;;;;4996980;28;20439;-74
2022/05/02 04:11:44;;;;;;;16.80;6.57;;;7.90;99.90;;;;;;5000639;28;20465;-75
2022/05/02 04:14:10;;;;;;;9.90;8.13;;;7.80;99.90;;;;;;4998371;28;20439;-73
2022/05/02 04:16:37;;;;;;;21.30;8.90;;;7.90;99.90;;;;;;4995901;28;20494;-75
2022/05/02 04:19:04;;;;;;;20.03;9.47;;;7.80;99.90;;;;;;4999239;28;20439;-75
2022/05/02 04:21:31;;;;;;;17.07;7.93;;;7.80;99.90;;;;;;4996586;28;21046;-74
2022/05/02 04:23:58;;;;;;;13.57;9.83;;;7.80;99.90;;;;;;4999986;28;20984;-74
2022/05/02 04:26:25;;;;;;;16.60;8.83;;;7.70;99.90;;;;;;4999105;28;20864;-74
2022/05/02 04:28:53;;;;;;;13.17;7.50;;;7.80;99.90;;;;;;4990187;28;20432;-75
2022/05/02 04:31:19;;;;;;;17.37;7.80;;;7.70;99.90;;;;;;4990762;28;20496;-76
2022/05/02 04:33:46;;;;;;;12.07;7.37;;;7.70;99.90;;;;;;4994269;28;20461;-75
2022/05/02 04:36:13;;;;;;;11.70;6.70;;;7.80;99.90;;;;;;4996031;28;20446;-76
2022/05/02 04:38:39;;;;;;;15.20;8.97;;;7.80;99.90;;;;;;4993343;28;20469;-77
2022/05/02 04:41:06;;;;;;;12.03;6.37;;;7.50;99.90;;;;;;4986829;28;20570;-76
2022/05/02 04:43:33;;;;;;;7.93;6.53;;;7.60;99.90;;;;;;4992262;28;20448;-76
2022/05/02 04:46:01;;;;;;;12.40;8.03;;;7.70;99.90;;;;;;4983892;28;20476;-76
2022/05/02 04:48:27;;;;;;;13.60;7.00;;;7.60;99.90;;;;;;4993186;28;20504;-76
2022/05/02 04:50:54;;;;;;;10.43;7.27;;;7.60;99.90;;;;;;5000276;28;20466;-76
2022/05/02 04:53:21;;;;;;;9.70;7.10;;;7.70;99.90;;;;;;4994873;28;21111;-76
2022/05/02 04:55:48;;;;;;;7.37;6.20;;;7.80;99.90;;;;;;4994889;28;20498;-75
2022/05/02 04:58:15;;;;;;;16.10;6.70;;;7.90;99.90;;;;;;5001576;28;20537;-76
2022/05/02 05:00:42;;;;;;;17.80;7.77;;;8.00;99.90;;;;;;5000327;28;21005;-75
2022/05/02 05:03:10;;;;;;;13.63;8.53;;;8.10;99.90;;;;;;5003186;28;20436;-76
2022/05/02 05:05:37;;;;;;;11.70;7.63;;;7.90;99.90;;;;;;4999435;28;20516;-76
2022/05/02 05:08:04;;;;;;;16.03;7.57;;;8.10;99.90;;;;;;5001195;28;20808;-76
2022/05/02 05:10:30;;;;;;;8.63;7.30;;;8.20;99.90;;;;;;4988435;28;21071;-76
2022/05/02 05:13:06;;;;;;;19.70;7.40;;;8.40;99.90;;;;;;4997020;28;20465;-76
2022/05/02 05:18:37;;;;;;;12.40;6.80;;;8.80;99.90;;;;;;4984762;28;20555;-76
2022/05/02 05:21:06;;;;;;;17.63;7.80;;;8.60;99.90;;;;;;4996590;28;20480;-74
2022/05/02 05:23:55;;;;;;;17.30;7.83;;;8.50;99.90;;;;;;4991011;28;20537;-76
2022/05/02 05:26:38;;;;;;;13.83;8.60;;;8.70;99.90;;;;;;4996765;28;20456;-77
2022/05/02 05:29:15;;;;;;;11.33;8.67;;;8.90;99.90;;;;;;4989590;28;20622;-75
2022/05/02 05:31:53;;;;;;;40.87;7.73;;;8.90;99.90;;;;;;4988339;28;20471;-76
2022/05/02 05:34:39;;;;;;;13.73;6.27;;;9.10;99.90;;;;;;4994666;28;20466;-75
2022/05/02 05:37:42;;;;;;;14.63;9.90;;;9.20;99.90;;;;;;4988653;28;20460;-75
2022/05/02 05:40:15;;;;;;;12.60;7.53;;;9.50;99.90;;;;;;4989827;28;20477;-73
2022/05/02 05:43:02;;;;;;;8.90;5.97;;;9.70;99.90;;;;;;4988328;28;20569;-74
2022/05/02 05:45:41;;;;;;;12.20;7.50;;;9.80;99.90;;;;;;4979326;28;20490;-75
2022/05/02 05:48:13;;;;;;;8.20;5.80;;;10.00;99.90;;;;;;5001511;28;20490;-76
2022/05/02 05:50:48;;;;;;;16.60;7.27;;;10.10;99.90;;;;;;5003458;28;20464;-75
2022/05/02 05:53:25;;;;;;;11.13;6.77;;;10.10;99.90;;;;;;5002039;28;20431;-76
2022/05/02 05:56:11;;;;;;;15.97;8.00;;;10.20;99.90;;;;;;5006108;28;20458;-75
2022/05/02 05:58:47;;;;;;;8.00;7.00;;;10.10;99.90;;;;;;5006809;28;20439;-74
2022/05/02 06:01:16;;;;;;;13.50;6.50;;;10.30;99.90;;;;;;5002694;28;20485;-75
2022/05/02 06:04:03;;;;;;;9.03;5.40;;;10.40;99.90;;;;;;4999932;28;20469;-76
2022/05/02 06:06:31;;;;;;;9.07;6.97;;;10.60;99.90;;;;;;4998791;28;20431;-76
2022/05/02 06:08:59;;;;;;;10.50;8.60;;;10.70;99.90;;;;;;4999311;28;20444;-75
2022/05/02 06:11:27;;;;;;;10.67;7.03;;;10.90;99.90;;;;;;5004550;28;20467;-75
2022/05/02 06:13:58;;;;;;;9.40;7.20;;;11.30;99.90;;;;;;5006270;28;20971;-75
2022/05/02 06:19:17;;;;;;;8.43;6.00;;;12.20;99.90;;;;;;5001372;28;20536;-76
2022/05/02 06:21:46;;;;;;;10.03;6.30;;;12.60;99.90;;;;;;5006953;28;21029;-75
2022/05/02 06:24:15;;;;;;;7.43;5.90;;;12.90;99.90;;;;;;4997355;28;21005;-75
2022/05/02 06:26:43;;;;;;;8.10;5.53;;;13.00;99.90;;;;;;5001847;28;20473;-75
2022/05/02 06:29:12;;;;;;;6.57;5.77;;;13.30;99.90;;;;;;4993163;28;20925;-75
2022/05/02 06:31:43;;;;;;;7.70;6.60;;;13.30;99.90;;;;;;5003483;28;20493;-74
2022/05/02 06:34:11;;;;;;;9.37;6.87;;;13.20;99.90;;;;;;4987711;28;20466;-74
2022/05/02 06:37:00;;;;;;;8.13;6.20;;;13.20;99.90;;;;;;4997060;28;21381;-76
2022/05/02 06:39:41;;;;;;;9.70;6.77;;;13.20;99.90;;;;;;5001822;28;20466;-75
2022/05/02 06:42:22;;;;;;;9.13;6.57;;;13.60;99.90;;;;;;4992576;28;20796;-77
2022/05/02 06:45:03;;;;;;;16.70;6.80;;;13.70;99.90;;;;;;4988439;28;20436;-76
2022/05/02 06:47:38;;;;;;;11.80;6.90;;;14.00;99.90;;;;;;5000904;28;20493;-75
2022/05/02 06:50:07;;;;;;;7.07;5.63;;;14.20;99.90;;;;;;5000678;28;20482;-75
2022/05/02 06:52:41;;;;;;;11.00;7.70;;;14.60;99.90;;;;;;4993800;28;20469;-75
2022/05/02 06:55:18;;;;;;;11.10;7.00;;;14.10;99.90;;;;;;4990934;28;20462;-75
2022/05/02 06:58:07;;;;;;;10.90;6.60;;;13.70;99.90;;;;;;4985899;28;20472;-75
2022/05/02 07:00:37;;;;;;;10.10;7.53;;;13.60;99.90;;;;;;4987832;28;20485;-74
2022/05/02 07:03:26;;;;;;;10.97;6.77;;;13.60;99.90;;;;;;4990554;28;20516;-75
2022/05/02 07:06:06;;;;;;;10.60;7.10;;;13.60;99.90;;;;;;4985947;28;20549;-75
2022/05/02 07:08:39;;;;;;;11.67;6.10;;;14.20;99.90;;;;;;4998629;28;20457;-75
2022/05/02 07:11:09;;;;;;;7.80;6.00;;;14.70;99.90;;;;;;4992542;28;21091;-74
2022/05/02 07:13:47;;;;;;;8.70;6.33;;;14.60;99.90;;;;;;4997345;28;20586;-75
2022/05/02 07:16:22;;;;;;;9.93;6.83;;;14.30;99.90;;;;;;5003871;28;20982;-75
2022/05/02 07:19:06;;;;;;;9.90;6.93;;;13.80;99.90;;;;;;5002596;28;20485;-74
2022/05/02 07:21:39;;;;;;;12.13;7.10;;;13.80;99.90;;;;;;5002021;28;20974;-75
2022/05/02 07:24:16;;;;;;;9.97;6.80;;;14.10;99.90;;;;;;4993200;28;20549;-75
2022/05/02 07:27:01;;;;;;;10.70;7.70;;;14.30;99.90;;;;;;4995314;28;20655;-75
2022/05/02 07:29:30;;;;;;;12.70;6.50;;;14.30;99.90;;;;;;4986091;28;20992;-75
2022/05/02 07:31:59;;;;;;;11.97;7.50;;;14.60;99.90;;;;;;5000064;28;20490;-75
2022/05/02 07:34:28;;;;;;;11.60;6.43;;;14.70;99.90;;;;;;4993483;28;21186;-75
2022/05/02 07:36:55;;;;;;;9.60;6.60;;;14.80;99.90;;;;;;4995884;28;20462;-75
2022/05/02 07:39:24;;;;;;;7.53;5.53;;;14.70;99.90;;;;;;4989236;28;20567;-75
2022/05/02 07:41:51;;;;;;;7.37;5.40;;;14.80;99.90;;;;;;4991293;28;20486;-74
2022/05/02 07:44:20;;;;;;;14.87;7.70;;;14.70;99.90;;;;;;5000209;28;20461;-75
2022/05/02 07:46:50;;;;;;;8.93;6.37;;;14.60;99.90;;;;;;4982035;28;20481;-74
2022/05/02 07:49:22;;;;;;;6.80;5.77;;;14.50;99.90;;;;;;4979051;28;20480;-75
2022/05/02 07:51:51;;;;;;;8.70;6.43;;;14.50;99.90;;;;;;4979671;28;20496;-73
2022/05/02 07:54:20;;;;;;;8.00;5.13;;;14.50;99.90;;;;;;4987400;28;20458;-73
2022/05/02 07:56:51;;;;;;;7.10;6.00;;;14.80;99.90;;;;;;4980486;28;20468;-74
2022/05/02 07:59:19;;;;;;;10.27;6.13;;;15.40;99.90;;;;;;4999825;28;20774;-75
2022/05/02 08:01:46;;;;;;;6.47;5.87;;;15.90;99.90;;;;;;5000662;28;20473;-74
2022/05/02 08:04:15;;;;;;;10.90;6.37;;;16.90;99.90;;;;;;4998790;28;20517;-74
2022/05/02 08:07:02;;;;;;;11.50;5.80;;;17.50;99.90;;;;;;4994191;28;20882;-72
2022/05/02 08:09:56;;;;;;;5.77;5.13;;;18.50;99.90;;;;;;4995682;28;20542;-76
2022/05/02 08:12:29;;;;;;;10.10;6.20;;;19.30;99.90;;;;;;4993288;28;20486;-75
2022/05/02 08:15:03;;;;;;;7.87;6.57;;;19.60;99.90;;;;;;4990308;28;20477;-74
2022/05/02 08:17:49;;;;;;;10.10;5.40;;;19.40;99.90;;;;;;5000559;28;20552;-74
2022/05/02 08:20:24;;;;;;;5.23;4.73;;;19.70;99.90;;;;;;4999258;28;20474;-76
2022/05/02 08:28:56;;;;;;;8.33;5.83;;;21.90;99.30;;;;;;4938870;29;21057;-75
2022/05/02 08:31:32;;;;;;;8.90;5.60;;;22.30;97.40;;;;;;4986859;28;20548;-74
2022/05/02 08:34:18;;;;;;;8.00;6.70;;;21.90;96.50;;;;;;5000737;28;20862;-74
2022/05/02 08:36:53;;;;;;;9.83;5.77;;;21.60;96.70;;;;;;5003005;28;20458;-73
2022/05/02 08:39:30;;;;;;;6.03;5.33;;;21.90;95.60;;;;;;4999171;28;20975;-74
2022/05/02 08:42:23;;;;;;;6.07;5.33;;;22.30;94.80;;;;;;5000589;28;20549;-75
2022/05/02 08:45:27;;;;;;;5.67;5.10;;;22.20;94.40;;;;;;4997688;28;20516;-73
2022/05/02 08:48:38;;;;;;;9.70;5.40;;;22.00;96.50;;;;;;5002166;28;20643;-74
2022/05/02 08:51:39;;;;;;;4.97;4.50;;;21.70;94.20;;;;;;4981814;28;20497;-74
2022/05/02 08:54:46;;;;;;;6.60;5.80;;;21.80;94.20;;;;;;4984135;28;20454;-75
2022/05/02 08:57:36;;;;;;;8.60;5.17;;;22.30;93.50;;;;;;4988134;28;20485;-75
2022/05/02 09:00:07;;;;;;;8.10;5.30;;;22.60;92.50;;;;;;4990634;28;20514;-74
2022/05/02 09:03:06;;;;;;;10.60;5.70;;;22.70;91.70;;;;;;4996163;28;20911;-72
2022/05/02 09:05:45;;;;;;;5.30;4.80;;;22.80;91.00;;;;;;4995638;28;20520;-74
2022/05/02 09:08:49;;;;;;;6.30;5.00;;;22.20;91.60;;;;;;5001217;28;20553;-75
2022/05/02 09:11:37;;;;;;;6.23;5.43;;;22.60;91.60;;;;;;5000819;28;21247;-74
2022/05/02 09:14:41;;;;;;;10.43;5.80;;;23.10;91.20;;;;;;4995988;28;20534;-75
2022/05/02 09:17:37;;;;;;;6.40;5.63;;;22.90;90.50;;;;;;4992923;28;20514;-73
2022/05/02 09:20:45;;;;;;;8.43;5.33;;;23.10;90.90;;;;;;4990341;28;21050;-75
2022/05/02 09:23:41;;;;;;;5.83;5.00;;;23.50;91.40;;;;;;4960082;28;20462;-76
2022/05/02 09:26:45;;;;;;;9.40;5.03;;;24.10;89.20;;;;;;4997776;28;20490;-76
2022/05/02 09:29:41;;;;;;;8.00;5.80;;;24.30;89.90;;;;;;4993750;28;20480;-77
2022/05/02 09:32:14;;;;;;;6.50;4.93;;;24.60;86.40;;;;;;4983097;28;20545;-75
2022/05/02 09:34:47;;;;;;;8.47;5.03;;;24.30;87.10;;;;;;4997143;28;20510;-73
2022/05/02 09:37:21;;;;;;;8.00;5.87;;;24.80;84.70;;;;;;5003934;28;20544;-75
2022/05/02 09:40:00;;;;;;;6.77;4.97;;;25.60;84.30;;;;;;4999129;28;20558;-74
2022/05/02 09:42:43;;;;;;;5.47;4.77;;;26.20;80.80;;;;;;5003851;28;20537;-75
2022/05/02 09:51:54;;;;;;;7.63;5.30;;;25.80;78.30;;;;;;4998407;28;20508;-74
2022/05/02 09:57:33;;;;;;;7.30;4.93;;;25.20;80.10;;;;;;4998252;28;20541;-74
2022/05/02 10:02:54;;;;;;;4.70;3.33;;;25.80;80.10;;;;;;4990231;28;20912;-76
2022/05/02 10:05:26;;;;;;;5.10;4.33;;;26.30;75.00;;;;;;4990970;28;20462;-75
2022/05/02 10:08:01;;;;;;;7.00;5.77;;;26.20;74.10;;;;;;5003787;28;20468;-76
2022/05/02 10:10:35;;;;;;;7.50;4.97;;;25.70;75.40;;;;;;4997193;28;20479;-76
2022/05/02 10:13:15;;;;;;;8.47;5.50;;;25.40;75.50;;;;;;5000016;28;20522;-74
2022/05/02 10:15:57;;;;;;;11.70;5.40;;;25.50;77.00;;;;;;4998345;28;20568;-76
2022/05/02 10:18:44;;;;;;;11.43;5.80;;;26.20;74.60;;;;;;4991318;28;20518;-76
2022/05/02 10:21:25;;;;;;;20.37;7.27;;;26.00;72.30;;;;;;4999394;28;20482;-74
2022/05/02 10:24:10;;;;;;;5.23;4.60;;;26.10;72.50;;;;;;4997737;28;20928;-74
2022/05/02 10:26:44;;;;;;;8.30;5.50;;;26.20;70.40;;;;;;4990905;28;20984;-74
2022/05/02 10:29:44;;;;;;;8.97;6.67;;;25.40;71.00;;;;;;4992279;28;20706;-77
2022/05/02 10:32:23;;;;;;;6.27;5.03;;;26.10;71.10;;;;;;4990588;28;21065;-76
2022/05/02 10:34:55;;;;;;;5.57;5.03;;;26.50;72.80;;;;;;4984250;28;20474;-76
2022/05/02 10:37:31;;;;;;;7.60;6.77;;;27.50;70.20;;;;;;5002941;28;20463;-76
2022/05/02 10:40:04;;;;;;;6.40;5.50;;;27.60;70.70;;;;;;4994041;28;20467;-75
2022/05/02 10:42:34;;;;;;;5.80;5.20;;;27.60;68.10;;;;;;4995156;28;20571;-76
2022/05/02 10:45:06;;;;;;;5.87;5.30;;;28.30;66.20;;;;;;4991793;28;20467;-75
2022/05/02 10:47:41;;;;;;;7.80;5.10;;;27.80;66.20;;;;;;4994917;28;20472;-76
2022/05/02 10:50:19;;;;;;;7.20;5.10;;;27.90;65.70;;;;;;5004257;28;20483;-75
2022/05/02 10:53:14;;;;;;;9.43;6.37;;;28.10;65.80;;;;;;4998900;28;20459;-74
2022/05/02 10:55:57;;;;;;;10.67;6.00;;;28.00;63.80;;;;;;4999689;28;20525;-75
2022/05/02 10:58:24;;;;;;;7.83;5.97;;;28.70;62.60;;;;;;5024134;22;20500;-69
2022/05/02 11:01:11;;;;;;;6.50;5.77;;;28.70;61.30;;;;;;5028521;28;20463;-67
2022/05/02 11:03:50;;;;;;;6.00;5.50;;;29.10;62.50;;;;;;5025628;28;20476;-69
2022/05/02 11:06:38;;;;;;;7.43;5.87;;;29.20;60.60;;;;;;5020415;28;20914;-69
2022/05/02 11:09:06;;;;;;;6.80;5.00;;;28.90;59.10;;;;;;5025026;28;20568;-69
2022/05/02 11:11:45;;;;;;;9.13;6.37;;;27.80;61.80;;;;;;5025362;28;20465;-68
2022/05/02 11:14:26;;;;;;;6.80;6.00;;;28.10;62.40;;;;;;5034403;28;21099;-70
2022/05/02 11:17:00;;;;;;;5.77;5.17;;;28.30;61.10;;;;;;5030099;28;21101;-69
2022/05/02 11:22:28;;;;;;;7.10;5.50;;;28.40;60.00;;;;;;5038995;28;20957;-67
2022/05/02 11:25:06;;;;;;;5.67;5.07;;;28.30;60.50;;;;;;5034982;28;20993;-69
2022/05/02 11:27:59;;;;;;;6.07;4.97;;;29.40;59.00;;;;;;5028542;28;20989;-68
2022/05/02 11:30:28;;;;;;;6.77;5.67;;;29.50;57.70;;;;;;5037021;28;20508;-69
2022/05/02 11:33:06;;;;;;;8.27;4.90;;;29.70;58.20;;;;;;5024694;28;20972;-69
2022/05/02 11:35:34;;;;;;;9.57;5.70;;;30.00;58.20;;;;;;5033508;28;20457;-69
2022/05/02 11:38:11;;;;;;;7.10;6.30;;;30.30;56.40;;;;;;5032268;28;20481;-68
2022/05/02 11:40:44;;;;;;;5.20;4.70;;;30.10;56.90;;;;;;5033573;28;20641;-69
2022/05/02 11:43:14;;;;;;;8.47;6.03;;;29.40;55.30;;;;;;5027122;28;20607;-68
2022/05/02 11:45:43;;;;;;;6.60;5.90;;;28.80;57.20;;;;;;5031443;28;20993;-68
2022/05/02 11:48:43;;;;;;;6.17;5.33;;;29.30;57.90;;;;;;5034751;28;20556;-67
2022/05/02 11:51:19;;;;;;;8.63;5.20;;;29.00;57.70;;;;;;5026567;28;20946;-70
2022/05/02 11:53:51;;;;;;;10.87;6.20;;;29.60;57.80;;;;;;5027663;28;20465;-70
2022/05/02 11:56:20;;;;;;;8.40;6.27;;;28.50;56.10;;;;;;5036337;28;20471;-69
2022/05/02 11:58:56;;;;;;;10.10;5.70;;;26.80;58.10;;;;;;5039416;28;20485;-68
2022/05/02 12:01:25;;;;;;;8.40;6.33;;;26.00;59.00;;;;;;5030736;28;20527;-69
2022/05/02 12:04:00;;;;;;;7.43;6.17;;;25.30;59.20;;;;;;5027004;28;20969;-70
2022/05/02 12:06:32;;;;;;;6.90;5.10;;;24.50;59.30;;;;;;5032607;28;20461;-68
2022/05/02 12:09:03;;;;;;;5.10;4.60;;;24.50;59.80;;;;;;5035995;28;20472;-69
2022/05/02 12:11:30;;;;;;;7.43;6.00;;;25.70;59.70;;;;;;5032246;28;20466;-70
2022/05/02 12:13:59;;;;;;;7.43;5.07;;;27.20;59.20;;;;;;5037264;28;20957;-69
2022/05/02 12:16:27;;;;;;;7.17;4.97;;;28.20;59.10;;;;;;5039823;28;20465;-69
2022/05/02 12:18:57;;;;;;;6.70;4.57;;;29.00;55.80;;;;;;5038504;28;21008;-68
2022/05/02 12:21:31;;;;;;;6.33;4.73;;;29.40;55.50;;;;;;5040097;28;20483;-68
2022/05/02 12:23:59;;;;;;;12.70;6.30;;;30.20;54.30;;;;;;5038816;28;20559;-70
2022/05/02 12:26:27;;;;;;;5.20;4.70;;;29.60;54.10;;;;;;5030954;28;20532;-69
2022/05/02 12:28:56;;;;;;;6.10;5.20;;;30.30;51.30;;;;;;5026986;28;20488;-68
2022/05/02 12:31:26;;;;;;;9.10;5.60;;;30.00;52.80;;;;;;5031879;28;20474;-69
2022/05/02 12:33:57;;;;;;;4.90;4.43;;;31.00;54.50;;;;;;5034380;28;20581;-70
2022/05/02 12:36:29;;;;;;;7.43;5.10;;;30.70;52.20;;;;;;5038166;28;20453;-70
2022/05/02 12:39:02;;;;;;;5.30;4.70;;;30.40;52.00;;;;;;5027596;28;20481;-70
2022/05/02 12:41:31;;;;;;;8.33;4.83;;;30.40;51.40;;;;;;5032879;28;20502;-70
2022/05/02 12:44:05;;;;;;;6.27;4.70;;;29.20;51.40;;;;;;5039723;28;20539;-68
2022/05/02 12:46:39;;;;;;;6.90;5.83;;;28.60;54.40;;;;;;5035047;28;20481;-69
2022/05/02 12:49:11;;;;;;;7.43;5.00;;;29.10;52.30;;;;;;5027135;28;20576;-69
2022/05/02 12:51:39;;;;;;;7.50;5.57;;;30.10;52.40;;;;;;5033577;28;20601;-70
2022/05/02 12:54:12;;;;;;;4.97;4.47;;;31.10;51.90;;;;;;5031079;28;20535;-70
2022/05/02 13:02:32;;;;;;;9.00;6.40;;;29.60;52.50;;;;;;5003894;28;20468;-69
2022/05/02 13:05:02;;;;;;;7.60;5.43;;;29.00;53.80;;;;;;5031588;28;20457;-68
2022/05/02 13:07:37;;;;;;;4.30;3.90;;;29.50;52.70;;;;;;5035689;28;20481;-70
2022/05/02 13:10:07;;;;;;;6.73;4.67;;;29.90;51.80;;;;;;5031094;28;21052;-70
2022/05/02 13:12:34;;;;;;;5.67;4.60;;;30.30;52.40;;;;;;5038640;28;20560;-70
2022/05/02 13:15:04;;;;;;;7.80;5.60;;;30.40;51.00;;;;;;5037994;28;20523;-67
2022/05/02 13:17:32;;;;;;;4.70;4.13;;;30.80;50.50;;;;;;5033293;28;20489;-70
2022/05/02 13:20:02;;;;;;;5.20;4.70;;;30.60;50.90;;;;;;5034153;28;20454;-71
2022/05/02 13:23:04;;;;;;;14.10;5.70;;;30.70;52.30;;;;;;5035710;28;20477;-68
2022/05/02 13:26:14;;;;;;;8.10;5.97;;;30.90;50.80;;;;;;5039367;28;20999;-70
2022/05/02 13:28:54;;;;;;;5.77;5.23;;;30.70;49.10;;;;;;5037581;28;20480;-69
2022/05/02 13:31:27;;;;;;;5.27;4.77;;;29.10;51.10;;;;;;5039769;28;20469;-69
2022/05/02 13:33:59;;;;;;;6.17;5.60;;;29.50;50.70;;;;;;5033457;28;20454;-69
2022/05/02 13:36:28;;;;;;;6.33;4.63;;;29.00;50.80;;;;;;5036073;28;20495;-69
2022/05/02 13:39:10;;;;;;;7.67;6.37;;;29.20;51.40;;;;;;5035369;28;20573;-69
2022/05/02 13:41:45;;;;;;;7.67;5.37;;;28.40;51.40;;;;;;5028687;28;20449;-70
2022/05/02 13:44:21;;;;;;;7.37;5.60;;;27.40;52.10;;;;;;5031012;28;20477;-69
2022/05/02 13:46:55;;;;;;;7.30;6.10;;;26.20;53.10;;;;;;5028032;28;20465;-68
2022/05/02 13:49:31;;;;;;;6.00;5.40;;;25.50;54.10;;;;;;5035503;28;20521;-70
2022/05/02 13:52:04;;;;;;;7.37;5.00;;;25.10;54.20;;;;;;5032865;28;20467;-70
2022/05/02 13:54:38;;;;;;;10.67;9.53;;;24.70;55.70;;;;;;5035965;28;20464;-69
2022/05/02 13:57:17;;;;;;;7.93;5.60;;;24.70;55.80;;;;;;5042093;28;20607;-70
2022/05/02 13:59:55;;;;;;;7.80;6.33;;;24.40;57.40;;;;;;5037756;28;20469;-70